createdAt,value
2018-12-10T00:04:55.393Z,5.1
2018-12-10T00:09:52.669Z,5.1
2018-12-10T00:14:50.009Z,5.2
2018-12-10T00:19:48.122Z,5.1
2018-12-10T00:24:45.107Z,5.2
2018-12-10T00:29:42.450Z,5.1
2018-12-10T00:34:39.292Z,5.1
2018-12-10T00:39:36.599Z,5.2
2018-12-10T00:44:33.839Z,5.1
2018-12-10T00:49:31.390Z,5.1
2018-12-10T00:54:28.643Z,5.2
2018-12-10T00:59:26.479Z,5.2
2018-12-10T01:04:23.986Z,5.2
2018-12-10T01:09:21.520Z,5
2018-12-10T01:14:18.877Z,5
2018-12-10T01:19:16.144Z,5.1
2018-12-10T01:24:13.619Z,5
2018-12-10T01:29:10.836Z,5.1
2018-12-10T01:34:08.187Z,5
2018-12-10T01:39:05.603Z,5
2018-12-10T01:44:03.188Z,5.1
2018-12-10T01:49:00.357Z,5.1
2018-12-10T01:53:57.762Z,5.1
2018-12-10T01:58:54.775Z,5.1
2018-12-10T02:03:52.104Z,5.1
2018-12-10T02:08:49.622Z,5
2018-12-10T02:13:47.235Z,4.9
2018-12-10T02:18:44.842Z,4.9
2018-12-10T02:23:42.243Z,4.9
2018-12-10T02:28:39.612Z,4.9
2018-12-10T02:33:36.994Z,4.9
2018-12-10T02:38:34.891Z,5
2018-12-10T02:43:32.111Z,4.9
2018-12-10T02:48:29.248Z,5
2018-12-10T02:53:27.048Z,4.9
2018-12-10T02:58:24.712Z,4.9
2018-12-10T03:03:22.194Z,4.9
2018-12-10T03:08:19.594Z,4.9
2018-12-10T03:13:16.679Z,4.9
2018-12-10T03:18:13.668Z,4.9
2018-12-10T03:23:11.562Z,4.9
2018-12-10T03:28:08.973Z,4.9
2018-12-10T03:33:06.397Z,4.8
2018-12-10T03:38:03.538Z,4.9
2018-12-10T03:43:01.123Z,4.8
2018-12-10T03:47:58.516Z,4.7
2018-12-10T03:52:55.975Z,4.7
2018-12-10T03:57:53.688Z,4.6
2018-12-10T04:02:51.198Z,4.6
2018-12-10T04:07:48.333Z,4.6
2018-12-10T04:12:45.629Z,4.6
2018-12-10T04:17:43.137Z,4.7
2018-12-10T04:22:40.872Z,4.7
2018-12-10T04:27:38.075Z,4.8
2018-12-10T04:32:35.436Z,4.6
2018-12-10T04:37:32.794Z,4.6
2018-12-10T04:42:29.990Z,4.6
2018-12-10T04:47:27.276Z,4.4
2018-12-10T04:52:25.029Z,4.5
2018-12-10T04:57:22.260Z,4.5
2018-12-10T05:02:20.095Z,4.4
2018-12-10T05:07:16.130Z,4.6
2018-12-10T05:12:13.639Z,4.5
2018-12-10T05:17:10.708Z,4.5
2018-12-10T05:22:08.127Z,4.5
2018-12-10T05:27:05.642Z,4.6
2018-12-10T05:32:03.019Z,4.6
2018-12-10T05:37:00.083Z,4.6
2018-12-10T05:41:57.471Z,4.6
2018-12-10T05:46:54.796Z,4.6
2018-12-10T05:51:52.418Z,4.6
2018-12-10T05:56:49.852Z,4.6
2018-12-10T06:01:47.593Z,4.6
2018-12-10T06:06:46.789Z,4.6
2018-12-10T06:11:45.646Z,4.6
2018-12-10T06:16:44.623Z,4.1
2018-12-10T06:21:41.992Z,4.6
2018-12-10T06:26:39.411Z,4.5
2018-12-10T06:31:36.515Z,4.5
2018-12-10T06:36:33.761Z,4.6
2018-12-10T06:41:30.887Z,4.6
2018-12-10T06:46:28.208Z,4.6
2018-12-10T06:51:25.823Z,4.6
2018-12-10T06:56:23.772Z,4.7
2018-12-10T07:01:21.350Z,4.6
2018-12-10T07:06:18.200Z,4.7
2018-12-10T07:11:15.560Z,4.7
2018-12-10T07:16:12.725Z,4.7
2018-12-10T07:21:10.005Z,4.7
2018-12-10T07:26:12.480Z,4.1
2018-12-10T07:31:08.068Z,4.7
2018-12-10T07:36:05.285Z,4.7
2018-12-10T07:41:03.072Z,4.7
2018-12-10T07:46:00.415Z,4.6
2018-12-10T07:50:57.645Z,4.6
2018-12-10T07:55:54.983Z,4.6
2018-12-10T08:00:52.303Z,4.7
2018-12-10T08:05:49.651Z,4.7
2018-12-10T08:10:46.954Z,4.7
2018-12-10T08:15:44.188Z,4.7
2018-12-10T08:20:41.513Z,4.7
2018-12-10T08:25:39.043Z,4.7
2018-12-10T08:30:36.511Z,4.7
2018-12-10T08:35:40.681Z,4.7
2018-12-10T08:40:31.428Z,4.7
2018-12-10T08:45:28.786Z,4.7
2018-12-10T08:50:26.648Z,4.7
2018-12-10T08:55:24.274Z,4.8
2018-12-10T09:00:25.964Z,4.3
2018-12-10T09:05:22.308Z,4.8
2018-12-10T09:10:19.698Z,4.8
2018-12-10T09:15:17.048Z,4.9
2018-12-10T09:20:16.129Z,5
2018-12-10T09:25:14.407Z,5
2018-12-10T09:30:12.197Z,5
2018-12-10T09:35:10.222Z,5
2018-12-10T09:40:07.433Z,5
2018-12-10T09:45:04.761Z,5.1
2018-12-10T09:50:02.008Z,5.1
2018-12-10T09:54:59.357Z,5.1
2018-12-10T09:59:56.689Z,5.1
2018-12-10T10:04:54.151Z,5.1
2018-12-10T10:09:51.779Z,5.1
2018-12-10T10:14:49.630Z,5.1
2018-12-10T10:19:46.797Z,4.9
2018-12-10T10:24:44.325Z,5.1
2018-12-10T10:29:42.241Z,5.1
2018-12-10T10:34:39.376Z,5.1
2018-12-10T10:39:39.925Z,5
2018-12-10T10:44:36.252Z,5.1
2018-12-10T10:49:33.965Z,5.1
2018-12-10T10:54:31.236Z,5.2
2018-12-10T10:59:29.368Z,5.2
2018-12-10T11:04:26.642Z,5.2
2018-12-10T11:09:25.838Z,5.2
2018-12-10T11:14:22.243Z,5.2
2018-12-10T11:19:19.912Z,5.3
2018-12-10T11:24:17.109Z,5.1
2018-12-10T11:29:15.262Z,5.5
2018-12-10T11:34:12.491Z,5.5
2018-12-10T11:39:09.592Z,5.5
2018-12-10T11:44:06.794Z,5.6
2018-12-10T11:49:04.560Z,5.6
2018-12-10T11:54:06.811Z,5.7
2018-12-10T11:59:03.166Z,5.7
2018-12-10T12:04:01.285Z,5.8
2018-12-10T12:08:58.742Z,5.8
2018-12-10T12:18:53.778Z,5.8
2018-12-10T12:23:51.124Z,5.8
2018-12-10T12:28:48.532Z,5.5
2018-12-10T12:33:44.200Z,5.9
2018-12-10T12:38:42.556Z,6
2018-12-10T12:43:39.602Z,6
2018-12-10T12:48:36.696Z,5.8
2018-12-10T12:53:34.922Z,6
2018-12-10T12:58:32.856Z,6.1
2018-12-10T13:03:30.182Z,0.3
2018-12-10T13:08:31.470Z,5.6
2018-12-10T13:13:27.803Z,6.1
2018-12-10T13:18:25.542Z,5.9
2018-12-10T13:23:22.283Z,6.1
2018-12-10T13:28:19.457Z,6.1
2018-12-10T13:33:22.609Z,6.1
2018-12-10T13:38:19.645Z,6.1
2018-12-10T13:43:16.714Z,6.2
2018-12-10T13:48:14.189Z,6.1
2018-12-10T13:53:12.093Z,6.2
2018-12-10T13:58:09.959Z,6.2
2018-12-10T14:03:07.048Z,6.2
2018-12-10T14:08:04.537Z,6.2
2018-12-10T14:13:01.695Z,6.2
2018-12-10T14:17:59.153Z,5.6
2018-12-10T14:22:54.070Z,6.2
2018-12-10T14:27:50.874Z,6.2
2018-12-10T14:32:48.472Z,6.2
2018-12-10T14:37:45.860Z,5.9
2018-12-10T14:42:43.965Z,6.2
2018-12-10T14:47:41.421Z,6.2
2018-12-10T14:52:38.950Z,5.6
2018-12-10T14:57:36.378Z,6.1
2018-12-10T15:02:34.025Z,6.1
2018-12-10T15:07:32.998Z,6.1
2018-12-10T15:12:30.414Z,6.1
2018-12-10T15:17:34.407Z,6.1
2018-12-10T15:22:30.369Z,6.1
2018-12-10T15:27:27.711Z,6.1
2018-12-10T15:32:25.150Z,6
2018-12-10T15:37:22.645Z,6
2018-12-10T15:42:20.353Z,6
2018-12-10T15:47:18.372Z,6
2018-12-10T15:52:16.140Z,5.9
2018-12-10T15:57:13.419Z,5.9
2018-12-10T16:02:10.553Z,5.9
2018-12-10T16:07:08.053Z,5.9
2018-12-10T16:12:06.023Z,5.8
2018-12-10T16:17:03.462Z,5.8
2018-12-10T16:22:00.774Z,5.7
2018-12-10T16:26:58.108Z,5.7
2018-12-10T16:31:55.844Z,5.7
2018-12-10T16:36:53.213Z,5.7
2018-12-10T16:41:50.546Z,5.7
2018-12-10T16:46:49.835Z,5.7
2018-12-10T16:51:46.656Z,5.7
2018-12-10T16:56:44.114Z,5.7
2018-12-10T17:01:41.179Z,5.7
2018-12-10T17:06:39.196Z,5.7
2018-12-10T17:11:37.005Z,5.7
2018-12-10T17:16:34.307Z,5.8
2018-12-10T17:21:31.752Z,5.8
2018-12-10T17:26:30.003Z,5.8
2018-12-10T17:31:27.457Z,5.8
2018-12-10T17:36:24.646Z,5.8
2018-12-10T17:41:22.068Z,5.7
2018-12-10T17:46:19.350Z,5.7
2018-12-10T17:51:16.553Z,5.7
2018-12-10T17:56:14.123Z,5.7
2018-12-10T18:01:11.659Z,5.7
2018-12-10T18:06:08.915Z,5.7
2018-12-10T18:11:06.400Z,5.6
2018-12-10T18:16:03.610Z,5.6
2018-12-10T18:21:01.243Z,5.6
2018-12-10T18:25:58.584Z,5.6
2018-12-10T18:30:55.945Z,5.6
2018-12-10T18:35:53.290Z,5.5
2018-12-10T18:40:50.823Z,5.3
2018-12-10T18:45:47.668Z,5.5
2018-12-10T18:50:45.163Z,5.4
2018-12-10T18:55:42.512Z,5.4
2018-12-10T19:00:39.800Z,5.4
2018-12-10T19:05:37.260Z,5.4
2018-12-10T19:10:34.751Z,5.4
2018-12-10T19:15:31.868Z,5.4
2018-12-10T19:20:29.291Z,5.4
2018-12-10T19:25:26.535Z,5.4
2018-12-10T19:30:25.007Z,5.4
2018-12-10T19:35:21.532Z,5.4
2018-12-10T19:40:19.220Z,5.4
2018-12-10T19:45:16.431Z,5.4
2018-12-10T19:50:13.958Z,5.3
2018-12-10T19:55:11.179Z,5.3
2018-12-10T20:00:08.911Z,5.3
2018-12-10T20:05:06.272Z,5.3
2018-12-10T20:10:03.958Z,5.2
2018-12-10T20:15:00.806Z,5.2
2018-12-10T20:19:58.014Z,5.2
2018-12-10T20:24:55.505Z,5.2
2018-12-10T20:29:52.962Z,5.2
2018-12-10T20:34:50.218Z,5.1
2018-12-10T20:39:47.599Z,4.9
2018-12-10T20:44:44.919Z,5.1
2018-12-10T20:49:42.359Z,5.1
2018-12-10T20:54:40.182Z,5
2018-12-10T20:59:37.757Z,5
2018-12-10T21:04:35.060Z,5
2018-12-10T21:09:32.623Z,5
2018-12-10T21:14:30.014Z,4.9
2018-12-10T21:19:27.049Z,4.9
2018-12-10T21:24:24.646Z,4.9
2018-12-10T21:29:22.085Z,4.9
2018-12-10T21:34:19.526Z,4.8
2018-12-10T21:39:17.162Z,4.8
2018-12-10T21:44:14.448Z,4.8
2018-12-10T21:49:11.950Z,4.8
2018-12-10T21:54:09.189Z,4.5
2018-12-10T21:59:06.821Z,4.7
2018-12-10T22:04:04.095Z,4.8
2018-12-10T22:09:01.656Z,4.8
2018-12-10T22:13:58.724Z,4.7
2018-12-10T22:18:56.179Z,4.8
2018-12-10T22:23:53.422Z,4.4
2018-12-10T22:28:51.091Z,4.7
2018-12-10T22:38:46.091Z,4.7
2018-12-10T22:43:43.483Z,4.7
2018-12-10T22:48:41.135Z,4.8
2018-12-10T22:53:38.747Z,4.8
2018-12-10T22:58:36.084Z,4.7
2018-12-10T23:03:33.424Z,4.8
2018-12-10T23:08:30.921Z,4.8
2018-12-10T23:13:28.264Z,4.7
2018-12-10T23:18:25.716Z,4.7
2018-12-10T23:23:23.478Z,4.7
2018-12-10T23:28:20.850Z,4.7
2018-12-10T23:33:18.319Z,4.7
2018-12-10T23:38:15.607Z,4.7
2018-12-10T23:43:13.215Z,4.7
2018-12-10T23:48:10.807Z,4.7
2018-12-10T23:53:08.138Z,4.7
2018-12-10T23:58:05.848Z,4.7
